sensor_id;sensor_type;location;lat;lon;timestamp;pressure;altitude;pressure_sealevel;temperature;humidity
28626;BME280;18905;42.668;23.364;2023-04-02T00:09:20;94211.91;;;8.86;100.00
28626;BME280;18905;42.668;23.364;2023-04-02T00:11:49;94207.97;;;9.04;100.00
28626;BME280;18905;42.668;23.364;2023-04-02T00:16:52;94210.19;;;9.02;100.00
28626;BME280;18905;42.668;23.364;2023-04-02T00:19:44;94212.22;;;9.05;100.00
28626;BME280;18905;42.668;23.364;2023-04-02T00:22:25;94197.53;;;9.02;100.00
28626;BME280;18905;42.668;23.364;2023-04-02T00:24:53;94169.59;;;8.66;100.00
28626;BME280;18905;42.668;23.364;2023-04-02T00:27:19;94180.13;;;8.79;100.00
28626;BME280;18905;42.668;23.364;2023-04-02T00:29:51;94198.84;;;8.96;100.00
28626;BME280;18905;42.668;23.364;2023-04-02T00:32:35;94192.97;;;9.15;100.00
28626;BME280;18905;42.668;23.364;2023-04-02T00:35:02;94151.22;;;8.68;100.00
28626;BME280;18905;42.668;23.364;2023-04-02T00:37:30;94189.31;;;8.99;100.00
28626;BME280;18905;42.668;23.364;2023-04-02T00:40:23;94196.91;;;8.97;100.00
28626;BME280;18905;42.668;23.364;2023-04-02T00:42:51;94166.59;;;8.88;100.00
28626;BME280;18905;42.668;23.364;2023-04-02T00:47:46;94165.63;;;8.72;100.00
28626;BME280;18905;42.668;23.364;2023-04-02T00:52:40;94117.00;;;8.48;100.00
28626;BME280;18905;42.668;23.364;2023-04-02T00:55:20;94158.78;;;8.25;100.00
28626;BME280;18905;42.668;23.364;2023-04-02T00:57:48;94156.41;;;7.31;100.00
28626;BME280;18905;42.668;23.364;2023-04-02T01:00:23;94190.06;;;7.29;100.00
28626;BME280;18905;42.668;23.364;2023-04-02T01:03:24;94190.88;;;6.87;100.00
28626;BME280;18905;42.668;23.364;2023-04-02T01:06:00;94213.59;;;6.89;100.00
28626;BME280;18905;42.668;23.364;2023-04-02T01:16:49;94219.94;;;6.12;100.00
28626;BME280;18905;42.668;23.364;2023-04-02T01:21:59;94225.44;;;6.07;100.00
28626;BME280;18905;42.668;23.364;2023-04-02T01:24:30;94218.41;;;6.28;100.00
28626;BME280;18905;42.668;23.364;2023-04-02T01:26:58;94224.72;;;6.32;100.00
28626;BME280;18905;42.668;23.364;2023-04-02T01:29:33;94227.69;;;6.22;100.00
28626;BME280;18905;42.668;23.364;2023-04-02T01:32:12;94230.09;;;6.32;100.00
28626;BME280;18905;42.668;23.364;2023-04-02T01:34:40;94204.69;;;6.38;100.00
28626;BME280;18905;42.668;23.364;2023-04-02T01:38:10;94238.53;;;6.64;100.00
28626;BME280;18905;42.668;23.364;2023-04-02T01:45:41;94209.84;;;6.99;100.00
28626;BME280;18905;42.668;23.364;2023-04-02T01:48:18;94221.19;;;7.21;100.00
28626;BME280;18905;42.668;23.364;2023-04-02T01:50:47;94227.66;;;7.29;100.00
28626;BME280;18905;42.668;23.364;2023-04-02T01:53:15;94202.25;;;7.18;100.00
28626;BME280;18905;42.668;23.364;2023-04-02T01:58:09;94189.31;;;6.86;100.00
28626;BME280;18905;42.668;23.364;2023-04-02T02:00:40;94192.63;;;7.17;100.00
28626;BME280;18905;42.668;23.364;2023-04-02T02:03:10;94173.81;;;7.08;100.00
28626;BME280;18905;42.668;23.364;2023-04-02T02:05:36;94217.22;;;7.53;100.00
28626;BME280;18905;42.668;23.364;2023-04-02T02:08:02;94158.19;;;7.02;100.00
28626;BME280;18905;42.668;23.364;2023-04-02T02:10:34;94206.63;;;7.39;100.00
28626;BME280;18905;42.668;23.364;2023-04-02T02:13:00;94181.22;;;7.28;100.00
28626;BME280;18905;42.668;23.364;2023-04-02T02:15:26;94218.91;;;7.66;100.00
28626;BME280;18905;42.668;23.364;2023-04-02T02:18:18;94212.13;;;7.60;100.00
28626;BME280;18905;42.668;23.364;2023-04-02T02:20:47;94212.75;;;7.65;100.00
28626;BME280;18905;42.668;23.364;2023-04-02T02:23:14;94135.75;;;7.15;100.00
28626;BME280;18905;42.668;23.364;2023-04-02T02:25:40;94184.91;;;7.07;100.00
28626;BME280;18905;42.668;23.364;2023-04-02T02:28:14;94199.56;;;7.09;100.00
28626;BME280;18905;42.668;23.364;2023-04-02T02:31:02;94218.38;;;7.09;100.00
28626;BME280;18905;42.668;23.364;2023-04-02T02:33:40;94204.94;;;6.92;100.00
28626;BME280;18905;42.668;23.364;2023-04-02T02:36:27;94217.22;;;7.02;100.00
28626;BME280;18905;42.668;23.364;2023-04-02T02:41:58;94222.47;;;6.90;100.00
28626;BME280;18905;42.668;23.364;2023-04-02T02:44:31;94188.50;;;6.60;100.00
28626;BME280;18905;42.668;23.364;2023-04-02T02:47:02;94194.50;;;6.57;100.00
28626;BME280;18905;42.668;23.364;2023-04-02T02:49:31;94168.59;;;6.61;100.00
28626;BME280;18905;42.668;23.364;2023-04-02T02:51:59;94229.72;;;6.81;100.00
28626;BME280;18905;42.668;23.364;2023-04-02T02:54:26;94197.19;;;6.57;100.00
28626;BME280;18905;42.668;23.364;2023-04-02T02:56:59;94206.06;;;6.91;100.00
28626;BME280;18905;42.668;23.364;2023-04-02T02:59:27;94189.16;;;7.08;100.00
28626;BME280;18905;42.668;23.364;2023-04-02T03:01:53;94220.09;;;7.31;100.00
28626;BME280;18905;42.668;23.364;2023-04-02T03:04:23;94197.66;;;6.76;100.00
28626;BME280;18905;42.668;23.364;2023-04-02T03:06:52;94225.72;;;6.53;100.00
28626;BME280;18905;42.668;23.364;2023-04-02T03:09:37;94218.75;;;6.35;100.00
28626;BME280;18905;42.668;23.364;2023-04-02T03:21:05;94229.22;;;6.62;100.00
28626;BME280;18905;42.668;23.364;2023-04-02T03:23:37;94244.38;;;6.75;100.00
28626;BME280;18905;42.668;23.364;2023-04-02T03:26:22;94205.22;;;6.57;100.00
28626;BME280;18905;42.668;23.364;2023-04-02T03:29:03;94216.75;;;6.74;100.00
28626;BME280;18905;42.668;23.364;2023-04-02T03:31:46;94209.13;;;6.34;100.00
28626;BME280;18905;42.668;23.364;2023-04-02T03:34:19;94197.16;;;6.48;100.00
28626;BME280;18905;42.668;23.364;2023-04-02T03:41:50;94240.91;;;7.08;100.00
28626;BME280;18905;42.668;23.364;2023-04-02T03:44:25;94207.13;;;6.82;100.00
28626;BME280;18905;42.668;23.364;2023-04-02T03:46:56;94239.50;;;7.19;100.00
28626;BME280;18905;42.668;23.364;2023-04-02T03:49:28;94237.78;;;7.06;100.00
28626;BME280;18905;42.668;23.364;2023-04-02T03:52:08;94191.66;;;6.79;100.00
28626;BME280;18905;42.668;23.364;2023-04-02T03:54:34;94164.53;;;6.63;100.00
28626;BME280;18905;42.668;23.364;2023-04-02T03:57:01;94238.56;;;7.15;100.00
28626;BME280;18905;42.668;23.364;2023-04-02T03:59:41;94176.97;;;6.42;100.00
28626;BME280;18905;42.668;23.364;2023-04-02T04:04:39;94251.03;;;6.94;100.00
28626;BME280;18905;42.668;23.364;2023-04-02T04:07:20;94214.38;;;6.81;100.00
28626;BME280;18905;42.668;23.364;2023-04-02T04:09:49;94183.44;;;6.58;100.00
28626;BME280;18905;42.668;23.364;2023-04-02T04:12:54;94233.66;;;6.92;100.00
28626;BME280;18905;42.668;23.364;2023-04-02T04:20:53;94258.56;;;6.11;100.00
28626;BME280;18905;42.668;23.364;2023-04-02T04:23:28;94250.38;;;6.16;100.00
28626;BME280;18905;42.668;23.364;2023-04-02T04:27:21;94253.38;;;6.14;100.00
28626;BME280;18905;42.668;23.364;2023-04-02T04:29:26;94277.09;;;6.38;100.00
28626;BME280;18905;42.668;23.364;2023-04-02T04:31:57;94249.00;;;6.27;100.00
28626;BME280;18905;42.668;23.364;2023-04-02T04:34:41;94259.13;;;6.47;100.00
28626;BME280;18905;42.668;23.364;2023-04-02T04:37:17;94280.13;;;6.53;100.00
28626;BME280;18905;42.668;23.364;2023-04-02T04:40:35;94271.03;;;6.63;100.00
28626;BME280;18905;42.668;23.364;2023-04-02T04:42:57;94221.47;;;6.52;100.00
28626;BME280;18905;42.668;23.364;2023-04-02T04:48:14;94276.78;;;7.38;100.00
28626;BME280;18905;42.668;23.364;2023-04-02T04:50:57;94287.31;;;7.94;100.00
28626;BME280;18905;42.668;23.364;2023-04-02T04:53:25;94286.91;;;8.12;100.00
28626;BME280;18905;42.668;23.364;2023-04-02T04:55:56;94216.38;;;9.88;100.00
28626;BME280;18905;42.668;23.364;2023-04-02T04:58:33;94261.91;;;11.57;100.00
28626;BME280;18905;42.668;23.364;2023-04-02T05:01:09;94207.28;;;12.38;100.00
28626;BME280;18905;42.668;23.364;2023-04-02T05:03:50;94198.94;;;13.47;97.43
28626;BME280;18905;42.668;23.364;2023-04-02T05:06:31;94235.13;;;14.11;82.23
28626;BME280;18905;42.668;23.364;2023-04-02T05:09:02;94232.63;;;13.46;81.07
28626;BME280;18905;42.668;23.364;2023-04-02T05:11:37;94287.97;;;12.64;86.17
28626;BME280;18905;42.668;23.364;2023-04-02T05:14:15;94279.28;;;11.84;92.23
28626;BME280;18905;42.668;23.364;2023-04-02T05:16:48;94222.81;;;11.15;97.56
28626;BME280;18905;42.668;23.364;2023-04-02T05:19:27;94287.25;;;11.53;100.00
28626;BME280;18905;42.668;23.364;2023-04-02T05:27:01;94273.94;;;8.89;100.00
28626;BME280;18905;42.668;23.364;2023-04-02T05:29:34;94300.63;;;8.74;100.00
28626;BME280;18905;42.668;23.364;2023-04-02T05:32:08;94224.91;;;8.26;100.00
28626;BME280;18905;42.668;23.364;2023-04-02T05:34:39;94303.06;;;8.58;100.00
28626;BME280;18905;42.668;23.364;2023-04-02T05:37:05;94228.06;;;8.28;100.00
28626;BME280;18905;42.668;23.364;2023-04-02T05:39:45;94234.47;;;8.73;100.00
28626;BME280;18905;42.668;23.364;2023-04-02T05:42:17;94222.78;;;8.69;100.00
28626;BME280;18905;42.668;23.364;2023-04-02T05:45:06;94284.66;;;9.18;100.00
28626;BME280;18905;42.668;23.364;2023-04-02T05:47:38;94304.41;;;9.51;100.00
28626;BME280;18905;42.668;23.364;2023-04-02T05:52:52;94248.66;;;8.82;100.00
28626;BME280;18905;42.668;23.364;2023-04-02T06:01:02;94317.41;;;8.71;100.00
28626;BME280;18905;42.668;23.364;2023-04-02T06:06:20;94309.91;;;9.14;100.00
28626;BME280;18905;42.668;23.364;2023-04-02T06:08:56;94318.53;;;10.01;100.00
28626;BME280;18905;42.668;23.364;2023-04-02T06:11:31;94315.78;;;10.78;100.00
28626;BME280;18905;42.668;23.364;2023-04-02T06:13:57;94251.03;;;11.30;100.00
28626;BME280;18905;42.668;23.364;2023-04-02T06:16:26;94283.22;;;12.30;95.43
28626;BME280;18905;42.668;23.364;2023-04-02T06:18:51;94248.84;;;12.77;86.71
28626;BME280;18905;42.668;23.364;2023-04-02T06:21:19;94324.53;;;14.04;79.04
28626;BME280;18905;42.668;23.364;2023-04-02T06:26:34;94238.53;;;12.98;81.31
28626;BME280;18905;42.668;23.364;2023-04-02T06:31:51;94281.88;;;14.20;72.75
28626;BME280;18905;42.668;23.364;2023-04-02T06:34:20;94261.66;;;14.40;71.19
28626;BME280;18905;42.668;23.364;2023-04-02T06:36:47;94254.41;;;14.25;68.44
28626;BME280;18905;42.668;23.364;2023-04-02T06:39:19;94248.78;;;13.96;69.45
28626;BME280;18905;42.668;23.364;2023-04-02T06:42:16;94272.28;;;13.88;71.69
28626;BME280;18905;42.668;23.364;2023-04-02T06:44:39;94317.38;;;14.15;72.84
28626;BME280;18905;42.668;23.364;2023-04-02T06:47:15;94237.63;;;14.42;69.34
28626;BME280;18905;42.668;23.364;2023-04-02T06:49:59;94254.72;;;15.36;63.66
28626;BME280;18905;42.668;23.364;2023-04-02T06:52:35;94307.06;;;15.30;64.24
28626;BME280;18905;42.668;23.364;2023-04-02T06:57:41;94232.09;;;13.97;67.80
28626;BME280;18905;42.668;23.364;2023-04-02T07:00:24;94328.47;;;13.88;75.59
28626;BME280;18905;42.668;23.364;2023-04-02T07:02:54;94269.97;;;13.52;70.94
28626;BME280;18905;42.668;23.364;2023-04-02T07:05:20;94335.28;;;14.16;72.61
28626;BME280;18905;42.668;23.364;2023-04-02T07:07:46;94258.81;;;14.14;70.06
28626;BME280;18905;42.668;23.364;2023-04-02T07:10:11;94290.13;;;14.27;68.16
28626;BME280;18905;42.668;23.364;2023-04-02T07:12:37;94245.19;;;14.30;66.51
28626;BME280;18905;42.668;23.364;2023-04-02T07:15:03;94264.09;;;13.69;69.76
28626;BME280;18905;42.668;23.364;2023-04-02T07:17:28;94256.78;;;12.85;75.90
28626;BME280;18905;42.668;23.364;2023-04-02T07:19:54;94284.13;;;12.96;77.29
28626;BME280;18905;42.668;23.364;2023-04-02T07:22:20;94339.78;;;14.09;72.51
28626;BME280;18905;42.668;23.364;2023-04-02T07:24:46;94275.97;;;13.99;70.69
28626;BME280;18905;42.668;23.364;2023-04-02T07:27:13;94296.03;;;14.74;67.51
28626;BME280;18905;42.668;23.364;2023-04-02T07:29:39;94308.59;;;15.53;64.87
28626;BME280;18905;42.668;23.364;2023-04-02T07:32:10;94346.25;;;16.03;62.82
28626;BME280;18905;42.668;23.364;2023-04-02T07:34:38;94329.91;;;16.03;61.11
28626;BME280;18905;42.668;23.364;2023-04-02T07:37:03;94279.41;;;15.50;63.30
28626;BME280;18905;42.668;23.364;2023-04-02T07:39:29;94299.38;;;16.20;62.29
28626;BME280;18905;42.668;23.364;2023-04-02T07:42:00;94348.94;;;16.62;60.71
28626;BME280;18905;42.668;23.364;2023-04-02T07:44:26;94282.53;;;15.26;64.87
28626;BME280;18905;42.668;23.364;2023-04-02T07:46:52;94350.38;;;15.94;64.97
28626;BME280;18905;42.668;23.364;2023-04-02T07:49:17;94283.56;;;16.00;61.93
28626;BME280;18905;42.668;23.364;2023-04-02T07:51:43;94342.25;;;16.56;60.64
28626;BME280;18905;42.668;23.364;2023-04-02T07:54:09;94260.63;;;16.34;56.86
28626;BME280;18905;42.668;23.364;2023-04-02T07:56:35;94319.72;;;16.30;58.49
28626;BME280;18905;42.668;23.364;2023-04-02T07:59:02;94256.84;;;16.09;56.68
28626;BME280;18905;42.668;23.364;2023-04-02T08:01:28;94306.91;;;16.63;55.71
28626;BME280;18905;42.668;23.364;2023-04-02T08:03:59;94283.94;;;16.64;54.78
28626;BME280;18905;42.668;23.364;2023-04-02T08:06:25;94287.63;;;17.83;50.64
28626;BME280;18905;42.668;23.364;2023-04-02T08:08:52;94299.50;;;18.15;49.89
28626;BME280;18905;42.668;23.364;2023-04-02T08:11:17;94350.41;;;18.44;49.50
28626;BME280;18905;42.668;23.364;2023-04-02T08:13:43;94353.69;;;18.88;47.35
28626;BME280;18905;42.668;23.364;2023-04-02T08:16:09;94300.69;;;17.50;47.82
28626;BME280;18905;42.668;23.364;2023-04-02T08:18:35;94340.22;;;17.73;51.38
28626;BME280;18905;42.668;23.364;2023-04-02T08:21:01;94305.50;;;17.70;50.93
28626;BME280;18905;42.668;23.364;2023-04-02T08:23:26;94325.09;;;17.32;49.32
28626;BME280;18905;42.668;23.364;2023-04-02T08:25:53;94257.78;;;16.23;49.66
28626;BME280;18905;42.668;23.364;2023-04-02T08:28:19;94344.94;;;17.29;48.25
28626;BME280;18905;42.668;23.364;2023-04-02T08:30:45;94291.72;;;15.70;52.04
28626;BME280;18905;42.668;23.364;2023-04-02T08:33:13;94351.41;;;17.11;50.79
28626;BME280;18905;42.668;23.364;2023-04-02T08:35:38;94282.19;;;17.87;48.49
28626;BME280;18905;42.668;23.364;2023-04-02T08:38:04;94340.69;;;17.35;49.38
28626;BME280;18905;42.668;23.364;2023-04-02T08:40:36;94271.63;;;17.24;48.41
28626;BME280;18905;42.668;23.364;2023-04-02T08:46:13;94356.09;;;17.14;50.16
28626;BME280;18905;42.668;23.364;2023-04-02T08:48:48;94294.63;;;16.80;48.68
28626;BME280;18905;42.668;23.364;2023-04-02T08:51:22;94358.19;;;18.39;45.55
28626;BME280;18905;42.668;23.364;2023-04-02T08:53:48;94298.00;;;18.28;44.63
28626;BME280;18905;42.668;23.364;2023-04-02T08:56:19;94335.50;;;17.63;47.38
28626;BME280;18905;42.668;23.364;2023-04-02T08:59:01;94285.41;;;18.06;48.07
28626;BME280;18905;42.668;23.364;2023-04-02T09:01:44;94284.84;;;17.76;47.82
28626;BME280;18905;42.668;23.364;2023-04-02T09:04:19;94299.38;;;19.01;45.86
28626;BME280;18905;42.668;23.364;2023-04-02T09:06:46;94356.91;;;19.88;44.60
28626;BME280;18905;42.668;23.364;2023-04-02T09:09:14;94292.44;;;18.07;43.85
28626;BME280;18905;42.668;23.364;2023-04-02T09:11:43;94342.00;;;20.24;42.09
28626;BME280;18905;42.668;23.364;2023-04-02T09:14:19;94269.28;;;19.78;43.36
28626;BME280;18905;42.668;23.364;2023-04-02T09:16:47;94348.25;;;19.02;46.74
28626;BME280;18905;42.668;23.364;2023-04-02T09:24:28;94264.31;;;17.39;47.27
28626;BME280;18905;42.668;23.364;2023-04-02T09:26:53;94346.38;;;18.24;46.43
28626;BME280;18905;42.668;23.364;2023-04-02T09:29:36;94343.63;;;19.55;41.23
28626;BME280;18905;42.668;23.364;2023-04-02T09:34:34;94341.66;;;19.84;40.60
28626;BME280;18905;42.668;23.364;2023-04-02T09:37:20;94319.63;;;18.61;44.91
28626;BME280;18905;42.668;23.364;2023-04-02T09:39:49;94281.94;;;16.98;47.44
28626;BME280;18905;42.668;23.364;2023-04-02T09:42:34;94249.56;;;16.53;48.79
28626;BME280;18905;42.668;23.364;2023-04-02T09:45:21;94254.44;;;15.45;49.88
28626;BME280;18905;42.668;23.364;2023-04-02T09:47:48;94316.22;;;16.99;50.29
28626;BME280;18905;42.668;23.364;2023-04-02T09:52:39;94331.22;;;17.66;49.43
28626;BME280;18905;42.668;23.364;2023-04-02T09:57:40;94242.09;;;16.86;47.42
28626;BME280;18905;42.668;23.364;2023-04-02T10:00:23;94324.41;;;17.02;49.35
28626;BME280;18905;42.668;23.364;2023-04-02T10:03:00;94331.97;;;16.79;49.63
28626;BME280;18905;42.668;23.364;2023-04-02T10:05:27;94256.19;;;15.89;49.51
28626;BME280;18905;42.668;23.364;2023-04-02T10:07:53;94322.25;;;16.12;50.48
28626;BME280;18905;42.668;23.364;2023-04-02T10:10:27;94254.44;;;15.71;49.55
28626;BME280;18905;42.668;23.364;2023-04-02T10:20:56;94257.72;;;16.93;46.07
28626;BME280;18905;42.668;23.364;2023-04-02T10:23:26;94249.34;;;17.19;45.49
28626;BME280;18905;42.668;23.364;2023-04-02T10:26:00;94269.19;;;16.69;47.09
28626;BME280;18905;42.668;23.364;2023-04-02T10:31:02;94243.28;;;16.12;48.12
28626;BME280;18905;42.668;23.364;2023-04-02T10:33:36;94253.50;;;15.60;48.53
28626;BME280;18905;42.668;23.364;2023-04-02T10:36:27;94315.22;;;16.41;49.13
28626;BME280;18905;42.668;23.364;2023-04-02T10:39:48;94314.47;;;16.14;50.12
28626;BME280;18905;42.668;23.364;2023-04-02T10:42:08;94243.41;;;15.60;49.49
28626;BME280;18905;42.668;23.364;2023-04-02T10:47:55;94309.09;;;15.88;51.56
28626;BME280;18905;42.668;23.364;2023-04-02T10:50:32;94272.28;;;15.68;51.55
28626;BME280;18905;42.668;23.364;2023-04-02T10:53:16;94308.09;;;16.33;50.38
28626;BME280;18905;42.668;23.364;2023-04-02T10:55:50;94205.81;;;16.39;49.44
28626;BME280;18905;42.668;23.364;2023-04-02T10:58:24;94246.38;;;16.11;49.94
28626;BME280;18905;42.668;23.364;2023-04-02T11:00:54;94293.91;;;16.17;51.08
28626;BME280;18905;42.668;23.364;2023-04-02T11:03:37;94296.69;;;15.35;52.35
28626;BME280;18905;42.668;23.364;2023-04-02T11:06:16;94231.47;;;16.01;50.12
28626;BME280;18905;42.668;23.364;2023-04-02T11:08:46;94213.59;;;15.41;50.56
28626;BME280;18905;42.668;23.364;2023-04-02T11:11:20;94300.78;;;16.73;49.78
28626;BME280;18905;42.668;23.364;2023-04-02T11:16:19;94219.38;;;17.22;48.03
28626;BME280;18905;42.668;23.364;2023-04-02T11:21:53;94216.16;;;17.10;46.44
28626;BME280;18905;42.668;23.364;2023-04-02T11:32:32;94214.63;;;16.65;47.33
28626;BME280;18905;42.668;23.364;2023-04-02T11:37:50;94265.81;;;17.29;48.36
28626;BME280;18905;42.668;23.364;2023-04-02T11:42:44;94231.75;;;17.63;46.27
28626;BME280;18905;42.668;23.364;2023-04-02T11:48:24;94274.66;;;17.70;46.30
28626;BME280;18905;42.668;23.364;2023-04-02T11:50:50;94188.38;;;17.48;45.57
28626;BME280;18905;42.668;23.364;2023-04-02T11:55:43;94217.81;;;16.34;47.09
28626;BME280;18905;42.668;23.364;2023-04-02T12:06:28;94270.34;;;17.11;46.48
28626;BME280;18905;42.668;23.364;2023-04-02T12:09:14;94231.72;;;16.59;48.17
28626;BME280;18905;42.668;23.364;2023-04-02T12:11:43;94221.00;;;16.03;48.75
28626;BME280;18905;42.668;23.364;2023-04-02T12:16:59;94204.59;;;16.33;47.99
28626;BME280;18905;42.668;23.364;2023-04-02T12:19:26;94198.97;;;16.52;47.98
28626;BME280;18905;42.668;23.364;2023-04-02T12:21:54;94181.59;;;15.61;48.08
28626;BME280;18905;42.668;23.364;2023-04-02T12:24:22;94261.38;;;15.98;49.08
28626;BME280;18905;42.668;23.364;2023-04-02T12:26:48;94164.09;;;15.32;48.88
28626;BME280;18905;42.668;23.364;2023-04-02T12:29:31;94261.25;;;15.87;49.14
28626;BME280;18905;42.668;23.364;2023-04-02T12:31:57;94183.88;;;15.29;49.64
28626;BME280;18905;42.668;23.364;2023-04-02T12:34:26;94268.88;;;16.08;49.20
28626;BME280;18905;42.668;23.364;2023-04-02T12:37:03;94151.78;;;14.83;49.07
28626;BME280;18905;42.668;23.364;2023-04-02T12:39:31;94195.34;;;15.71;50.64
28626;BME280;18905;42.668;23.364;2023-04-02T12:41:57;94232.22;;;16.35;49.19
28626;BME280;18905;42.668;23.364;2023-04-02T12:44:28;94178.38;;;16.21;47.83
28626;BME280;18905;42.668;23.364;2023-04-02T12:46:54;94203.56;;;16.44;47.42
28626;BME280;18905;42.668;23.364;2023-04-02T12:49:40;94237.38;;;16.40;48.86
28626;BME280;18905;42.668;23.364;2023-04-02T12:52:10;94193.13;;;16.17;46.98
28626;BME280;18905;42.668;23.364;2023-04-02T12:54:45;94243.94;;;16.39;48.05
28626;BME280;18905;42.668;23.364;2023-04-02T12:57:30;94250.69;;;16.48;47.46
28626;BME280;18905;42.668;23.364;2023-04-02T13:05:37;94191.47;;;16.09;46.89
28626;BME280;18905;42.668;23.364;2023-04-02T13:08:16;94164.69;;;16.11;46.97
28626;BME280;18905;42.668;23.364;2023-04-02T13:10:42;94153.00;;;16.50;46.05
28626;BME280;18905;42.668;23.364;2023-04-02T13:13:23;94245.28;;;16.95;45.04
28626;BME280;18905;42.668;23.364;2023-04-02T13:16:02;94158.19;;;15.89;45.71
28626;BME280;18905;42.668;23.364;2023-04-02T13:18:29;94209.59;;;16.27;47.39
28626;BME280;18905;42.668;23.364;2023-04-02T13:20:58;94179.31;;;16.39;45.22
28626;BME280;18905;42.668;23.364;2023-04-02T13:26:00;94179.91;;;16.55;44.97
28626;BME280;18905;42.668;23.364;2023-04-02T13:28:27;94229.06;;;15.96;46.04
28626;BME280;18905;42.668;23.364;2023-04-02T13:30:53;94235.25;;;16.26;45.89
28626;BME280;18905;42.668;23.364;2023-04-02T13:33:18;94223.97;;;16.64;45.31
28626;BME280;18905;42.668;23.364;2023-04-02T13:35:44;94158.28;;;15.96;44.74
28626;BME280;18905;42.668;23.364;2023-04-02T13:38:10;94158.16;;;16.62;45.11
28626;BME280;18905;42.668;23.364;2023-04-02T13:40:36;94164.84;;;17.29;44.17
28626;BME280;18905;42.668;23.364;2023-04-02T13:43:03;94227.63;;;18.01;44.62
28626;BME280;18905;42.668;23.364;2023-04-02T13:45:32;94223.75;;;18.12;43.15
28626;BME280;18905;42.668;23.364;2023-04-02T13:47:58;94147.47;;;17.55;42.19
28626;BME280;18905;42.668;23.364;2023-04-02T13:50:28;94216.06;;;18.35;42.94
28626;BME280;18905;42.668;23.364;2023-04-02T13:52:57;94142.09;;;17.72;41.80
28626;BME280;18905;42.668;23.364;2023-04-02T13:55:27;94229.16;;;17.91;41.47
28626;BME280;18905;42.668;23.364;2023-04-02T13:57:54;94221.88;;;18.23;41.12
28626;BME280;18905;42.668;23.364;2023-04-02T14:00:20;94220.69;;;18.24;40.58
28626;BME280;18905;42.668;23.364;2023-04-02T14:02:49;94170.22;;;17.87;41.94
28626;BME280;18905;42.668;23.364;2023-04-02T14:10:55;94221.72;;;17.92;42.23
28626;BME280;18905;42.668;23.364;2023-04-02T14:16:57;94212.50;;;18.21;40.81
28626;BME280;18905;42.668;23.364;2023-04-02T14:19:15;94211.41;;;18.50;40.52
28626;BME280;18905;42.668;23.364;2023-04-02T14:24:18;94210.66;;;18.70;41.10
28626;BME280;18905;42.668;23.364;2023-04-02T14:30:19;94218.19;;;17.77;40.75
28626;BME280;18905;42.668;23.364;2023-04-02T14:32:47;94200.84;;;18.38;41.33
28626;BME280;18905;42.668;23.364;2023-04-02T14:35:23;94212.06;;;18.15;40.64
28626;BME280;18905;42.668;23.364;2023-04-02T14:40:51;94215.69;;;18.44;41.01
28626;BME280;18905;42.668;23.364;2023-04-02T14:43:26;94189.00;;;17.99;40.64
28626;BME280;18905;42.668;23.364;2023-04-02T14:48:45;94207.41;;;18.26;40.18
28626;BME280;18905;42.668;23.364;2023-04-02T14:51:26;94207.31;;;17.98;40.64
28626;BME280;18905;42.668;23.364;2023-04-02T14:54:16;94217.00;;;17.82;41.07
28626;BME280;18905;42.668;23.364;2023-04-02T14:56:53;94157.78;;;17.21;41.02
28626;BME280;18905;42.668;23.364;2023-04-02T14:59:42;94149.06;;;16.98;41.09
28626;BME280;18905;42.668;23.364;2023-04-02T15:02:20;94137.31;;;16.87;41.25
28626;BME280;18905;42.668;23.364;2023-04-02T15:04:56;94147.34;;;16.73;41.86
28626;BME280;18905;42.668;23.364;2023-04-02T15:07:26;94178.75;;;17.07;41.26
28626;BME280;18905;42.668;23.364;2023-04-02T15:10:21;94218.44;;;17.01;41.80
28626;BME280;18905;42.668;23.364;2023-04-02T15:12:49;94234.78;;;16.97;41.39
28626;BME280;18905;42.668;23.364;2023-04-02T15:15:25;94232.41;;;16.92;41.43
28626;BME280;18905;42.668;23.364;2023-04-02T15:17:57;94225.56;;;16.69;42.60
28626;BME280;18905;42.668;23.364;2023-04-02T15:20:23;94231.66;;;16.52;43.00
28626;BME280;18905;42.668;23.364;2023-04-02T15:25:37;94169.50;;;16.71;42.34
28626;BME280;18905;42.668;23.364;2023-04-02T15:28:12;94232.59;;;17.20;41.55
28626;BME280;18905;42.668;23.364;2023-04-02T15:30:45;94180.84;;;16.73;41.78
28626;BME280;18905;42.668;23.364;2023-04-02T15:39:30;94231.78;;;17.13;41.21
28626;BME280;18905;42.668;23.364;2023-04-02T15:41:38;94240.97;;;16.94;41.65
28626;BME280;18905;42.668;23.364;2023-04-02T15:44:12;94166.31;;;16.62;42.30
28626;BME280;18905;42.668;23.364;2023-04-02T15:46:55;94232.31;;;16.82;41.92
28626;BME280;18905;42.668;23.364;2023-04-02T15:49:46;94231.38;;;16.64;42.39
28626;BME280;18905;42.668;23.364;2023-04-02T16:00:20;94229.53;;;17.86;86.84
28626;BME280;18905;42.668;23.364;2023-04-02T16:08:39;94248.13;;;16.29;53.80
28626;BME280;18905;42.668;23.364;2023-04-02T16:11:12;94194.84;;;15.95;44.91
28626;BME280;18905;42.668;23.364;2023-04-02T16:13:39;94229.88;;;15.97;44.41
28626;BME280;18905;42.668;23.364;2023-04-02T16:16:21;94250.44;;;16.27;45.36
28626;BME280;18905;42.668;23.364;2023-04-02T16:21:49;94246.28;;;15.45;45.01
28626;BME280;18905;42.668;23.364;2023-04-02T16:24:18;94168.44;;;15.07;45.05
28626;BME280;18905;42.668;23.364;2023-04-02T16:26:55;94244.13;;;15.57;44.76
28626;BME280;18905;42.668;23.364;2023-04-02T16:45:24;94188.41;;;14.66;45.24
28626;BME280;18905;42.668;23.364;2023-04-02T16:51:46;94263.28;;;14.90;45.91
28626;BME280;18905;42.668;23.364;2023-04-02T17:05:03;94277.97;;;14.40;46.46
28626;BME280;18905;42.668;23.364;2023-04-02T17:10:21;94279.88;;;14.40;47.20
28626;BME280;18905;42.668;23.364;2023-04-02T17:12:58;94286.53;;;14.42;46.93
28626;BME280;18905;42.668;23.364;2023-04-02T17:15:31;94189.16;;;13.80;48.02
28626;BME280;18905;42.668;23.364;2023-04-02T17:17:59;94242.50;;;13.73;49.32